sensor_id;sensor_type;location;lat;lon;timestamp;temperature;humidity
16064;DHT22;8136;53.172;8.256;2023-07-29T00:00:43;19.20;99.90
16064;DHT22;8136;53.172;8.256;2023-07-29T00:03:09;19.20;99.90
16064;DHT22;8136;53.172;8.256;2023-07-29T00:05:37;19.20;99.90
16064;DHT22;8136;53.172;8.256;2023-07-29T00:08:04;19.20;99.90
16064;DHT22;8136;53.172;8.256;2023-07-29T00:10:32;19.20;99.90
16064;DHT22;8136;53.172;8.256;2023-07-29T00:13:00;19.20;99.90
16064;DHT22;8136;53.172;8.256;2023-07-29T00:15:27;19.30;99.90
16064;DHT22;8136;53.172;8.256;2023-07-29T00:17:54;19.20;99.90
16064;DHT22;8136;53.172;8.256;2023-07-29T00:20:21;19.20;99.90
16064;DHT22;8136;53.172;8.256;2023-07-29T00:22:47;19.10;99.90
16064;DHT22;8136;53.172;8.256;2023-07-29T00:25:15;19.10;99.90
16064;DHT22;8136;53.172;8.256;2023-07-29T00:27:42;19.00;99.90
16064;DHT22;8136;53.172;8.256;2023-07-29T00:30:11;19.00;99.90
16064;DHT22;8136;53.172;8.256;2023-07-29T00:32:38;19.00;99.90
16064;DHT22;8136;53.172;8.256;2023-07-29T00:35:06;19.00;99.90
16064;DHT22;8136;53.172;8.256;2023-07-29T00:37:32;19.00;99.90
16064;DHT22;8136;53.172;8.256;2023-07-29T00:39:59;19.00;99.90
16064;DHT22;8136;53.172;8.256;2023-07-29T00:42:26;18.90;99.90
16064;DHT22;8136;53.172;8.256;2023-07-29T00:44:53;18.80;99.90
16064;DHT22;8136;53.172;8.256;2023-07-29T00:47:22;18.70;99.90
16064;DHT22;8136;53.172;8.256;2023-07-29T00:49:51;18.70;99.90
16064;DHT22;8136;53.172;8.256;2023-07-29T00:52:18;18.60;99.90
16064;DHT22;8136;53.172;8.256;2023-07-29T00:54:45;18.70;99.90
16064;DHT22;8136;53.172;8.256;2023-07-29T00:57:13;18.70;99.90
16064;DHT22;8136;53.172;8.256;2023-07-29T00:59:41;18.70;99.90
16064;DHT22;8136;53.172;8.256;2023-07-29T01:02:08;18.70;99.90
16064;DHT22;8136;53.172;8.256;2023-07-29T01:04:37;18.70;99.90
16064;DHT22;8136;53.172;8.256;2023-07-29T01:07:10;18.80;99.90
16064;DHT22;8136;53.172;8.256;2023-07-29T01:09:46;18.80;99.90
16064;DHT22;8136;53.172;8.256;2023-07-29T01:12:20;18.80;99.90
16064;DHT22;8136;53.172;8.256;2023-07-29T01:14:59;18.70;99.90
16064;DHT22;8136;53.172;8.256;2023-07-29T01:17:33;18.70;99.90
16064;DHT22;8136;53.172;8.256;2023-07-29T01:20:07;18.70;99.90
16064;DHT22;8136;53.172;8.256;2023-07-29T01:22:35;18.70;99.90
16064;DHT22;8136;53.172;8.256;2023-07-29T01:25:04;18.70;99.90
16064;DHT22;8136;53.172;8.256;2023-07-29T01:27:31;18.60;99.90
16064;DHT22;8136;53.172;8.256;2023-07-29T01:29:58;18.70;99.90
16064;DHT22;8136;53.172;8.256;2023-07-29T01:32:37;18.60;99.90
16064;DHT22;8136;53.172;8.256;2023-07-29T01:35:22;18.60;99.90
16064;DHT22;8136;53.172;8.256;2023-07-29T01:37:54;18.50;99.90
16064;DHT22;8136;53.172;8.256;2023-07-29T01:40:27;18.50;99.90
16064;DHT22;8136;53.172;8.256;2023-07-29T01:42:54;18.50;99.90
16064;DHT22;8136;53.172;8.256;2023-07-29T01:45:23;18.50;99.90
16064;DHT22;8136;53.172;8.256;2023-07-29T01:47:50;18.40;99.90
16064;DHT22;8136;53.172;8.256;2023-07-29T01:50:17;18.50;99.90
16064;DHT22;8136;53.172;8.256;2023-07-29T01:52:44;18.40;99.90
16064;DHT22;8136;53.172;8.256;2023-07-29T01:55:10;18.40;99.90
16064;DHT22;8136;53.172;8.256;2023-07-29T01:57:39;18.40;99.90
16064;DHT22;8136;53.172;8.256;2023-07-29T02:00:07;18.40;99.90
16064;DHT22;8136;53.172;8.256;2023-07-29T02:02:34;18.40;99.90
16064;DHT22;8136;53.172;8.256;2023-07-29T02:05:01;18.40;99.90
16064;DHT22;8136;53.172;8.256;2023-07-29T02:07:27;18.40;99.90
16064;DHT22;8136;53.172;8.256;2023-07-29T02:09:54;18.40;99.90
16064;DHT22;8136;53.172;8.256;2023-07-29T02:12:21;18.30;99.90
16064;DHT22;8136;53.172;8.256;2023-07-29T02:14:49;18.30;99.90
16064;DHT22;8136;53.172;8.256;2023-07-29T02:17:16;18.30;99.90
16064;DHT22;8136;53.172;8.256;2023-07-29T02:19:43;18.20;99.90
16064;DHT22;8136;53.172;8.256;2023-07-29T02:22:12;18.20;99.90
16064;DHT22;8136;53.172;8.256;2023-07-29T02:24:39;18.20;99.90
16064;DHT22;8136;53.172;8.256;2023-07-29T02:27:06;18.10;99.90
16064;DHT22;8136;53.172;8.256;2023-07-29T02:29:33;18.10;99.90
16064;DHT22;8136;53.172;8.256;2023-07-29T02:32:01;18.00;99.90
16064;DHT22;8136;53.172;8.256;2023-07-29T02:34:28;18.00;99.90
16064;DHT22;8136;53.172;8.256;2023-07-29T02:36:55;18.10;99.90
16064;DHT22;8136;53.172;8.256;2023-07-29T02:39:22;18.10;99.90
16064;DHT22;8136;53.172;8.256;2023-07-29T02:41:49;18.10;99.90
16064;DHT22;8136;53.172;8.256;2023-07-29T02:44:16;18.10;99.90
16064;DHT22;8136;53.172;8.256;2023-07-29T02:46:42;18.10;99.90
16064;DHT22;8136;53.172;8.256;2023-07-29T02:49:10;18.10;99.90
16064;DHT22;8136;53.172;8.256;2023-07-29T02:51:37;18.10;99.90
16064;DHT22;8136;53.172;8.256;2023-07-29T02:54:04;18.10;99.90
16064;DHT22;8136;53.172;8.256;2023-07-29T02:56:31;18.20;99.90
16064;DHT22;8136;53.172;8.256;2023-07-29T02:58:58;18.20;99.90
16064;DHT22;8136;53.172;8.256;2023-07-29T03:01:25;18.20;99.90
16064;DHT22;8136;53.172;8.256;2023-07-29T03:03:52;18.20;99.90
16064;DHT22;8136;53.172;8.256;2023-07-29T03:06:20;18.20;99.90
16064;DHT22;8136;53.172;8.256;2023-07-29T03:08:47;18.20;99.90
16064;DHT22;8136;53.172;8.256;2023-07-29T03:11:15;18.30;99.90
16064;DHT22;8136;53.172;8.256;2023-07-29T03:13:42;18.20;99.90
16064;DHT22;8136;53.172;8.256;2023-07-29T03:16:11;18.30;99.90
16064;DHT22;8136;53.172;8.256;2023-07-29T03:18:39;18.30;99.90
16064;DHT22;8136;53.172;8.256;2023-07-29T03:21:06;18.30;99.90
16064;DHT22;8136;53.172;8.256;2023-07-29T03:23:35;18.30;99.90
16064;DHT22;8136;53.172;8.256;2023-07-29T03:26:02;18.30;99.90
16064;DHT22;8136;53.172;8.256;2023-07-29T03:28:36;18.30;99.90
16064;DHT22;8136;53.172;8.256;2023-07-29T03:31:03;18.40;99.90
16064;DHT22;8136;53.172;8.256;2023-07-29T03:33:30;18.40;99.90
16064;DHT22;8136;53.172;8.256;2023-07-29T03:35:57;18.40;99.90
16064;DHT22;8136;53.172;8.256;2023-07-29T03:38:24;18.50;99.90
16064;DHT22;8136;53.172;8.256;2023-07-29T03:40:52;18.40;99.90
16064;DHT22;8136;53.172;8.256;2023-07-29T03:43:19;18.40;99.90
16064;DHT22;8136;53.172;8.256;2023-07-29T03:45:46;18.50;99.90
16064;DHT22;8136;53.172;8.256;2023-07-29T03:48:12;18.50;99.90
16064;DHT22;8136;53.172;8.256;2023-07-29T03:50:39;18.40;99.90
16064;DHT22;8136;53.172;8.256;2023-07-29T03:53:06;18.40;99.90
16064;DHT22;8136;53.172;8.256;2023-07-29T03:55:33;18.40;99.90
16064;DHT22;8136;53.172;8.256;2023-07-29T03:58:01;18.40;99.90
16064;DHT22;8136;53.172;8.256;2023-07-29T04:00:28;18.50;99.90
16064;DHT22;8136;53.172;8.256;2023-07-29T04:02:54;18.50;99.90
16064;DHT22;8136;53.172;8.256;2023-07-29T04:05:21;18.40;99.90
16064;DHT22;8136;53.172;8.256;2023-07-29T04:07:48;18.40;99.90
16064;DHT22;8136;53.172;8.256;2023-07-29T04:10:15;18.40;99.90
16064;DHT22;8136;53.172;8.256;2023-07-29T04:12:42;18.40;99.90
16064;DHT22;8136;53.172;8.256;2023-07-29T04:15:11;18.40;99.90
16064;DHT22;8136;53.172;8.256;2023-07-29T04:17:37;18.40;99.90
16064;DHT22;8136;53.172;8.256;2023-07-29T04:20:05;18.40;99.90
16064;DHT22;8136;53.172;8.256;2023-07-29T04:22:33;18.40;99.90
16064;DHT22;8136;53.172;8.256;2023-07-29T04:25:00;18.40;99.90
16064;DHT22;8136;53.172;8.256;2023-07-29T04:27:26;18.30;99.90
16064;DHT22;8136;53.172;8.256;2023-07-29T04:29:55;18.30;99.90
16064;DHT22;8136;53.172;8.256;2023-07-29T04:32:23;18.40;99.90
16064;DHT22;8136;53.172;8.256;2023-07-29T04:34:49;18.40;99.90
16064;DHT22;8136;53.172;8.256;2023-07-29T04:37:16;18.40;99.90
16064;DHT22;8136;53.172;8.256;2023-07-29T04:39:43;18.50;99.90
16064;DHT22;8136;53.172;8.256;2023-07-29T04:42:10;18.50;99.90
16064;DHT22;8136;53.172;8.256;2023-07-29T04:44:37;18.50;99.90
16064;DHT22;8136;53.172;8.256;2023-07-29T04:47:04;18.50;99.90
16064;DHT22;8136;53.172;8.256;2023-07-29T04:49:32;18.50;99.90
16064;DHT22;8136;53.172;8.256;2023-07-29T04:51:59;18.50;99.90
16064;DHT22;8136;53.172;8.256;2023-07-29T04:54:25;18.60;99.90
16064;DHT22;8136;53.172;8.256;2023-07-29T04:56:52;18.60;99.90
16064;DHT22;8136;53.172;8.256;2023-07-29T04:59:19;18.60;99.90
16064;DHT22;8136;53.172;8.256;2023-07-29T05:01:46;18.60;99.90
16064;DHT22;8136;53.172;8.256;2023-07-29T05:04:12;18.70;99.90
16064;DHT22;8136;53.172;8.256;2023-07-29T05:06:41;18.70;99.90
16064;DHT22;8136;53.172;8.256;2023-07-29T05:09:14;18.60;99.90
16064;DHT22;8136;53.172;8.256;2023-07-29T05:11:42;18.50;99.90
16064;DHT22;8136;53.172;8.256;2023-07-29T05:14:10;18.60;99.90
16064;DHT22;8136;53.172;8.256;2023-07-29T05:16:37;18.60;99.90
16064;DHT22;8136;53.172;8.256;2023-07-29T05:19:04;18.60;99.90
16064;DHT22;8136;53.172;8.256;2023-07-29T05:21:31;18.70;99.90
16064;DHT22;8136;53.172;8.256;2023-07-29T05:23:59;18.70;99.90
16064;DHT22;8136;53.172;8.256;2023-07-29T05:26:26;18.70;99.90
16064;DHT22;8136;53.172;8.256;2023-07-29T05:28:52;18.70;99.90
16064;DHT22;8136;53.172;8.256;2023-07-29T05:31:19;18.70;99.90
16064;DHT22;8136;53.172;8.256;2023-07-29T05:33:46;18.70;99.90
16064;DHT22;8136;53.172;8.256;2023-07-29T05:36:12;18.70;99.90
16064;DHT22;8136;53.172;8.256;2023-07-29T05:38:39;18.80;99.90
16064;DHT22;8136;53.172;8.256;2023-07-29T05:41:07;18.80;99.90
16064;DHT22;8136;53.172;8.256;2023-07-29T05:43:34;18.80;99.90
16064;DHT22;8136;53.172;8.256;2023-07-29T05:46:01;18.80;99.90
16064;DHT22;8136;53.172;8.256;2023-07-29T05:48:28;18.80;99.90
16064;DHT22;8136;53.172;8.256;2023-07-29T05:50:54;18.80;99.90
16064;DHT22;8136;53.172;8.256;2023-07-29T05:53:21;18.80;99.90
16064;DHT22;8136;53.172;8.256;2023-07-29T05:55:48;18.80;99.90
16064;DHT22;8136;53.172;8.256;2023-07-29T05:58:16;18.80;99.90
16064;DHT22;8136;53.172;8.256;2023-07-29T06:00:43;18.80;99.90
16064;DHT22;8136;53.172;8.256;2023-07-29T06:03:10;18.80;99.90
16064;DHT22;8136;53.172;8.256;2023-07-29T06:05:36;18.90;99.90
16064;DHT22;8136;53.172;8.256;2023-07-29T06:08:03;18.80;99.90
16064;DHT22;8136;53.172;8.256;2023-07-29T06:10:30;18.90;99.90
16064;DHT22;8136;53.172;8.256;2023-07-29T06:12:57;18.90;99.90
16064;DHT22;8136;53.172;8.256;2023-07-29T06:15:25;18.90;99.90
16064;DHT22;8136;53.172;8.256;2023-07-29T06:17:52;18.90;99.90
16064;DHT22;8136;53.172;8.256;2023-07-29T06:20:21;18.90;99.90
16064;DHT22;8136;53.172;8.256;2023-07-29T06:22:47;18.90;99.90
16064;DHT22;8136;53.172;8.256;2023-07-29T06:25:14;19.00;99.90
16064;DHT22;8136;53.172;8.256;2023-07-29T06:27:41;18.90;99.90
16064;DHT22;8136;53.172;8.256;2023-07-29T06:30:08;18.90;99.90
16064;DHT22;8136;53.172;8.256;2023-07-29T06:32:36;18.90;99.90
16064;DHT22;8136;53.172;8.256;2023-07-29T06:35:03;18.90;99.90
16064;DHT22;8136;53.172;8.256;2023-07-29T06:37:30;18.90;99.90
16064;DHT22;8136;53.172;8.256;2023-07-29T06:39:58;18.90;99.90
16064;DHT22;8136;53.172;8.256;2023-07-29T06:42:25;19.00;99.90
16064;DHT22;8136;53.172;8.256;2023-07-29T06:44:52;18.90;99.90
16064;DHT22;8136;53.172;8.256;2023-07-29T06:47:19;18.90;99.90
16064;DHT22;8136;53.172;8.256;2023-07-29T06:49:47;19.00;99.90
16064;DHT22;8136;53.172;8.256;2023-07-29T06:52:13;19.00;99.90
16064;DHT22;8136;53.172;8.256;2023-07-29T06:54:40;19.10;99.90
16064;DHT22;8136;53.172;8.256;2023-07-29T06:57:07;19.10;99.90
16064;DHT22;8136;53.172;8.256;2023-07-29T06:59:34;19.10;99.90
16064;DHT22;8136;53.172;8.256;2023-07-29T07:02:00;19.20;99.90
16064;DHT22;8136;53.172;8.256;2023-07-29T07:04:27;19.30;99.90
16064;DHT22;8136;53.172;8.256;2023-07-29T07:06:55;19.20;99.90
16064;DHT22;8136;53.172;8.256;2023-07-29T07:09:22;19.20;99.90
16064;DHT22;8136;53.172;8.256;2023-07-29T07:11:49;19.30;99.90
16064;DHT22;8136;53.172;8.256;2023-07-29T07:14:16;19.30;99.90
16064;DHT22;8136;53.172;8.256;2023-07-29T07:16:43;19.30;99.90
16064;DHT22;8136;53.172;8.256;2023-07-29T07:19:10;19.30;99.90
16064;DHT22;8136;53.172;8.256;2023-07-29T07:21:37;19.30;99.90
16064;DHT22;8136;53.172;8.256;2023-07-29T07:24:06;19.30;99.90
16064;DHT22;8136;53.172;8.256;2023-07-29T07:26:32;19.30;99.90
16064;DHT22;8136;53.172;8.256;2023-07-29T07:28:59;19.40;99.90
16064;DHT22;8136;53.172;8.256;2023-07-29T07:31:26;19.30;99.90
16064;DHT22;8136;53.172;8.256;2023-07-29T07:33:53;19.40;99.90
16064;DHT22;8136;53.172;8.256;2023-07-29T07:36:19;19.30;99.90
16064;DHT22;8136;53.172;8.256;2023-07-29T07:38:46;19.40;99.90
16064;DHT22;8136;53.172;8.256;2023-07-29T07:41:14;19.40;99.90
16064;DHT22;8136;53.172;8.256;2023-07-29T07:43:41;19.50;99.90
16064;DHT22;8136;53.172;8.256;2023-07-29T07:46:08;19.60;99.90
16064;DHT22;8136;53.172;8.256;2023-07-29T07:48:35;19.60;99.90
16064;DHT22;8136;53.172;8.256;2023-07-29T07:51:10;19.70;99.90
16064;DHT22;8136;53.172;8.256;2023-07-29T07:53:37;19.70;99.90
16064;DHT22;8136;53.172;8.256;2023-07-29T07:56:04;19.70;99.90
16064;DHT22;8136;53.172;8.256;2023-07-29T07:58:33;19.60;99.90
16064;DHT22;8136;53.172;8.256;2023-07-29T08:01:03;19.70;99.90
16064;DHT22;8136;53.172;8.256;2023-07-29T08:03:30;19.70;99.90
16064;DHT22;8136;53.172;8.256;2023-07-29T08:05:58;19.60;99.90
16064;DHT22;8136;53.172;8.256;2023-07-29T08:08:25;19.50;99.90
16064;DHT22;8136;53.172;8.256;2023-07-29T08:10:53;19.50;99.90
16064;DHT22;8136;53.172;8.256;2023-07-29T08:13:24;19.50;99.90
16064;DHT22;8136;53.172;8.256;2023-07-29T08:15:52;19.60;99.90
16064;DHT22;8136;53.172;8.256;2023-07-29T08:18:20;19.60;99.90
16064;DHT22;8136;53.172;8.256;2023-07-29T08:20:53;19.70;99.90
16064;DHT22;8136;53.172;8.256;2023-07-29T08:23:24;19.80;99.90
16064;DHT22;8136;53.172;8.256;2023-07-29T08:25:52;19.80;99.90
16064;DHT22;8136;53.172;8.256;2023-07-29T08:28:20;19.90;99.90
16064;DHT22;8136;53.172;8.256;2023-07-29T08:30:47;19.90;99.90
16064;DHT22;8136;53.172;8.256;2023-07-29T08:33:17;19.90;99.90
16064;DHT22;8136;53.172;8.256;2023-07-29T08:35:52;20.00;99.90
16064;DHT22;8136;53.172;8.256;2023-07-29T08:38:19;20.00;99.90
16064;DHT22;8136;53.172;8.256;2023-07-29T08:40:52;20.00;99.90
16064;DHT22;8136;53.172;8.256;2023-07-29T08:43:22;20.10;99.90
16064;DHT22;8136;53.172;8.256;2023-07-29T08:45:52;20.10;99.90
16064;DHT22;8136;53.172;8.256;2023-07-29T08:48:26;20.10;99.90
16064;DHT22;8136;53.172;8.256;2023-07-29T08:50:56;20.10;99.90
16064;DHT22;8136;53.172;8.256;2023-07-29T08:53:25;20.20;99.90
16064;DHT22;8136;53.172;8.256;2023-07-29T08:55:53;20.20;99.90
16064;DHT22;8136;53.172;8.256;2023-07-29T08:58:21;20.30;99.90
16064;DHT22;8136;53.172;8.256;2023-07-29T09:00:48;20.30;99.90
16064;DHT22;8136;53.172;8.256;2023-07-29T09:03:15;20.30;99.90
16064;DHT22;8136;53.172;8.256;2023-07-29T09:05:46;20.40;99.90
16064;DHT22;8136;53.172;8.256;2023-07-29T09:08:13;20.40;99.90
16064;DHT22;8136;53.172;8.256;2023-07-29T09:10:40;20.40;99.90
16064;DHT22;8136;53.172;8.256;2023-07-29T09:13:09;20.40;99.90
16064;DHT22;8136;53.172;8.256;2023-07-29T09:16:07;20.50;99.90
16064;DHT22;8136;53.172;8.256;2023-07-29T09:18:37;20.50;99.90
16064;DHT22;8136;53.172;8.256;2023-07-29T09:21:06;20.70;99.90
16064;DHT22;8136;53.172;8.256;2023-07-29T09:23:38;20.80;99.90
16064;DHT22;8136;53.172;8.256;2023-07-29T09:26:06;20.80;99.90
16064;DHT22;8136;53.172;8.256;2023-07-29T09:28:34;20.80;99.90
16064;DHT22;8136;53.172;8.256;2023-07-29T09:31:02;20.80;99.90
16064;DHT22;8136;53.172;8.256;2023-07-29T09:33:29;20.90;99.90
16064;DHT22;8136;53.172;8.256;2023-07-29T09:35:57;20.90;99.90
16064;DHT22;8136;53.172;8.256;2023-07-29T09:38:27;21.10;99.90
16064;DHT22;8136;53.172;8.256;2023-07-29T09:40:55;21.20;99.90
16064;DHT22;8136;53.172;8.256;2023-07-29T09:43:25;21.40;99.90
16064;DHT22;8136;53.172;8.256;2023-07-29T09:48:53;21.50;99.90
16064;DHT22;8136;53.172;8.256;2023-07-29T09:51:20;21.60;99.90
16064;DHT22;8136;53.172;8.256;2023-07-29T09:53:50;21.70;99.90
16064;DHT22;8136;53.172;8.256;2023-07-29T09:56:17;21.80;99.90
16064;DHT22;8136;53.172;8.256;2023-07-29T09:58:45;21.80;99.90
16064;DHT22;8136;53.172;8.256;2023-07-29T10:01:12;21.80;99.90
16064;DHT22;8136;53.172;8.256;2023-07-29T10:03:39;21.80;99.90
16064;DHT22;8136;53.172;8.256;2023-07-29T10:06:07;21.90;99.90
16064;DHT22;8136;53.172;8.256;2023-07-29T10:08:34;22.00;99.90
16064;DHT22;8136;53.172;8.256;2023-07-29T10:11:13;22.00;99.90
16064;DHT22;8136;53.172;8.256;2023-07-29T10:13:59;22.10;99.90
16064;DHT22;8136;53.172;8.256;2023-07-29T10:16:34;22.00;99.90
16064;DHT22;8136;53.172;8.256;2023-07-29T10:19:15;21.90;99.90
16064;DHT22;8136;53.172;8.256;2023-07-29T10:21:44;21.80;99.90
16064;DHT22;8136;53.172;8.256;2023-07-29T10:24:15;21.70;99.90
16064;DHT22;8136;53.172;8.256;2023-07-29T10:26:46;21.80;99.90
16064;DHT22;8136;53.172;8.256;2023-07-29T10:29:18;21.90;99.90
16064;DHT22;8136;53.172;8.256;2023-07-29T10:31:46;22.00;99.90
16064;DHT22;8136;53.172;8.256;2023-07-29T10:34:13;22.10;99.90
16064;DHT22;8136;53.172;8.256;2023-07-29T10:36:44;22.30;99.90
16064;DHT22;8136;53.172;8.256;2023-07-29T10:39:12;22.50;99.90
16064;DHT22;8136;53.172;8.256;2023-07-29T10:42:15;22.60;99.90
16064;DHT22;8136;53.172;8.256;2023-07-29T10:44:49;22.50;99.90
16064;DHT22;8136;53.172;8.256;2023-07-29T10:47:20;22.30;99.90
16064;DHT22;8136;53.172;8.256;2023-07-29T10:49:50;22.20;99.90
16064;DHT22;8136;53.172;8.256;2023-07-29T10:52:40;22.00;99.90
16064;DHT22;8136;53.172;8.256;2023-07-29T10:55:23;21.90;99.90
16064;DHT22;8136;53.172;8.256;2023-07-29T10:58:07;21.90;99.90
16064;DHT22;8136;53.172;8.256;2023-07-29T11:04:22;22.00;99.90
16064;DHT22;8136;53.172;8.256;2023-07-29T11:07:28;21.90;99.90
16064;DHT22;8136;53.172;8.256;2023-07-29T11:10:02;21.80;99.90
16064;DHT22;8136;53.172;8.256;2023-07-29T11:12:40;21.70;99.90
16064;DHT22;8136;53.172;8.256;2023-07-29T11:15:26;21.70;99.90
16064;DHT22;8136;53.172;8.256;2023-07-29T11:17:55;21.70;99.90
16064;DHT22;8136;53.172;8.256;2023-07-29T11:20:23;21.60;99.90
16064;DHT22;8136;53.172;8.256;2023-07-29T11:22:52;21.60;99.90
16064;DHT22;8136;53.172;8.256;2023-07-29T11:25:21;21.60;99.90
16064;DHT22;8136;53.172;8.256;2023-07-29T11:27:48;21.70;99.90
16064;DHT22;8136;53.172;8.256;2023-07-29T11:30:17;21.80;99.90
16064;DHT22;8136;53.172;8.256;2023-07-29T11:32:45;21.90;99.90
16064;DHT22;8136;53.172;8.256;2023-07-29T11:35:14;21.90;99.90
16064;DHT22;8136;53.172;8.256;2023-07-29T11:37:43;22.00;99.90
16064;DHT22;8136;53.172;8.256;2023-07-29T11:40:14;22.00;99.90
16064;DHT22;8136;53.172;8.256;2023-07-29T11:42:41;22.00;99.90
16064;DHT22;8136;53.172;8.256;2023-07-29T11:45:08;22.10;99.90
16064;DHT22;8136;53.172;8.256;2023-07-29T11:47:37;22.30;99.90
16064;DHT22;8136;53.172;8.256;2023-07-29T11:50:05;22.30;99.90
16064;DHT22;8136;53.172;8.256;2023-07-29T11:52:33;22.40;99.90
16064;DHT22;8136;53.172;8.256;2023-07-29T11:55:00;22.40;99.90
16064;DHT22;8136;53.172;8.256;2023-07-29T11:57:28;22.60;99.90
16064;DHT22;8136;53.172;8.256;2023-07-29T11:59:56;22.70;99.90
16064;DHT22;8136;53.172;8.256;2023-07-29T12:02:24;22.80;99.90
16064;DHT22;8136;53.172;8.256;2023-07-29T12:04:53;23.10;99.90
16064;DHT22;8136;53.172;8.256;2023-07-29T12:07:20;23.30;99.90
16064;DHT22;8136;53.172;8.256;2023-07-29T12:09:47;23.50;99.90
16064;DHT22;8136;53.172;8.256;2023-07-29T12:12:15;23.60;99.90
16064;DHT22;8136;53.172;8.256;2023-07-29T12:14:46;23.50;99.90
16064;DHT22;8136;53.172;8.256;2023-07-29T12:17:14;23.40;99.90
16064;DHT22;8136;53.172;8.256;2023-07-29T12:19:42;23.30;99.90
16064;DHT22;8136;53.172;8.256;2023-07-29T12:25:30;23.50;99.90
16064;DHT22;8136;53.172;8.256;2023-07-29T12:28:02;23.80;99.90
16064;DHT22;8136;53.172;8.256;2023-07-29T12:30:29;24.00;99.90
16064;DHT22;8136;53.172;8.256;2023-07-29T12:32:56;24.10;99.90
16064;DHT22;8136;53.172;8.256;2023-07-29T12:35:23;24.00;99.90
16064;DHT22;8136;53.172;8.256;2023-07-29T12:37:58;23.80;99.90
16064;DHT22;8136;53.172;8.256;2023-07-29T12:40:26;23.70;99.90
16064;DHT22;8136;53.172;8.256;2023-07-29T12:42:54;23.60;99.90
16064;DHT22;8136;53.172;8.256;2023-07-29T12:45:21;23.60;99.90
16064;DHT22;8136;53.172;8.256;2023-07-29T12:47:52;23.60;99.90
16064;DHT22;8136;53.172;8.256;2023-07-29T12:50:18;23.70;99.90
16064;DHT22;8136;53.172;8.256;2023-07-29T12:52:46;23.70;99.90
16064;DHT22;8136;53.172;8.256;2023-07-29T12:55:13;23.90;99.90
16064;DHT22;8136;53.172;8.256;2023-07-29T12:57:41;24.10;99.90
16064;DHT22;8136;53.172;8.256;2023-07-29T13:00:11;24.30;99.90
16064;DHT22;8136;53.172;8.256;2023-07-29T13:02:38;24.40;99.90
16064;DHT22;8136;53.172;8.256;2023-07-29T13:05:08;24.40;99.90
16064;DHT22;8136;53.172;8.256;2023-07-29T13:07:36;24.50;99.90
16064;DHT22;8136;53.172;8.256;2023-07-29T13:10:03;24.70;99.90
16064;DHT22;8136;53.172;8.256;2023-07-29T13:12:52;24.70;99.90
16064;DHT22;8136;53.172;8.256;2023-07-29T13:15:36;24.60;99.90
16064;DHT22;8136;53.172;8.256;2023-07-29T13:18:03;24.50;99.90
16064;DHT22;8136;53.172;8.256;2023-07-29T13:20:30;24.40;99.90
16064;DHT22;8136;53.172;8.256;2023-07-29T13:22:59;24.50;99.90
16064;DHT22;8136;53.172;8.256;2023-07-29T13:25:26;24.40;99.90
16064;DHT22;8136;53.172;8.256;2023-07-29T13:27:52;24.30;99.90
16064;DHT22;8136;53.172;8.256;2023-07-29T13:30:19;24.20;99.90
16064;DHT22;8136;53.172;8.256;2023-07-29T13:32:47;24.30;99.90
16064;DHT22;8136;53.172;8.256;2023-07-29T13:35:14;24.40;99.90
16064;DHT22;8136;53.172;8.256;2023-07-29T13:37:41;24.30;99.90
16064;DHT22;8136;53.172;8.256;2023-07-29T13:40:08;24.10;99.90
16064;DHT22;8136;53.172;8.256;2023-07-29T13:42:35;23.90;99.90
16064;DHT22;8136;53.172;8.256;2023-07-29T13:45:02;23.70;99.90
16064;DHT22;8136;53.172;8.256;2023-07-29T13:47:29;23.50;99.90
16064;DHT22;8136;53.172;8.256;2023-07-29T13:49:57;23.20;99.90
16064;DHT22;8136;53.172;8.256;2023-07-29T13:52:24;23.00;99.90
16064;DHT22;8136;53.172;8.256;2023-07-29T13:54:51;23.00;99.90
16064;DHT22;8136;53.172;8.256;2023-07-29T13:57:17;23.00;99.90
16064;DHT22;8136;53.172;8.256;2023-07-29T13:59:44;23.00;99.90
16064;DHT22;8136;53.172;8.256;2023-07-29T14:02:11;22.80;99.90
16064;DHT22;8136;53.172;8.256;2023-07-29T14:04:38;22.70;99.90
16064;DHT22;8136;53.172;8.256;2023-07-29T14:07:06;22.60;99.90
16064;DHT22;8136;53.172;8.256;2023-07-29T14:09:33;22.50;99.90
16064;DHT22;8136;53.172;8.256;2023-07-29T14:11:59;22.50;99.90
16064;DHT22;8136;53.172;8.256;2023-07-29T14:14:26;22.50;99.90
16064;DHT22;8136;53.172;8.256;2023-07-29T14:16:53;22.50;99.90
16064;DHT22;8136;53.172;8.256;2023-07-29T14:19:40;22.60;99.90
16064;DHT22;8136;53.172;8.256;2023-07-29T14:22:09;22.70;99.90
16064;DHT22;8136;53.172;8.256;2023-07-29T14:24:36;22.80;99.90
16064;DHT22;8136;53.172;8.256;2023-07-29T14:27:06;23.00;99.90
16064;DHT22;8136;53.172;8.256;2023-07-29T14:29:33;23.20;99.90
16064;DHT22;8136;53.172;8.256;2023-07-29T14:32:00;23.40;99.90
16064;DHT22;8136;53.172;8.256;2023-07-29T14:34:27;23.60;99.90
16064;DHT22;8136;53.172;8.256;2023-07-29T14:36:54;23.70;99.90
16064;DHT22;8136;53.172;8.256;2023-07-29T14:39:22;23.90;99.90
16064;DHT22;8136;53.172;8.256;2023-07-29T14:41:49;24.00;99.90
16064;DHT22;8136;53.172;8.256;2023-07-29T14:44:16;24.10;99.90
16064;DHT22;8136;53.172;8.256;2023-07-29T14:46:43;23.90;99.90
16064;DHT22;8136;53.172;8.256;2023-07-29T14:49:10;23.80;99.90
16064;DHT22;8136;53.172;8.256;2023-07-29T14:51:37;23.70;99.90
16064;DHT22;8136;53.172;8.256;2023-07-29T14:54:04;23.80;99.90
16064;DHT22;8136;53.172;8.256;2023-07-29T14:56:32;24.00;99.90
16064;DHT22;8136;53.172;8.256;2023-07-29T14:58:58;24.40;99.90
16064;DHT22;8136;53.172;8.256;2023-07-29T15:01:25;24.80;99.90
16064;DHT22;8136;53.172;8.256;2023-07-29T15:03:52;24.90;99.90
16064;DHT22;8136;53.172;8.256;2023-07-29T15:06:19;25.00;99.90
16064;DHT22;8136;53.172;8.256;2023-07-29T15:08:46;24.80;99.90
16064;DHT22;8136;53.172;8.256;2023-07-29T15:11:12;24.40;99.90
16064;DHT22;8136;53.172;8.256;2023-07-29T15:13:40;24.10;99.90
16064;DHT22;8136;53.172;8.256;2023-07-29T15:16:07;23.80;99.90
16064;DHT22;8136;53.172;8.256;2023-07-29T15:18:34;23.60;99.90
16064;DHT22;8136;53.172;8.256;2023-07-29T15:21:01;23.30;99.90
16064;DHT22;8136;53.172;8.256;2023-07-29T15:23:28;23.30;99.90
16064;DHT22;8136;53.172;8.256;2023-07-29T15:25:56;23.20;99.90
16064;DHT22;8136;53.172;8.256;2023-07-29T15:28:23;23.10;99.90
16064;DHT22;8136;53.172;8.256;2023-07-29T15:30:52;23.10;99.90
16064;DHT22;8136;53.172;8.256;2023-07-29T15:36:29;23.00;99.90
16064;DHT22;8136;53.172;8.256;2023-07-29T15:38:55;23.00;99.90
16064;DHT22;8136;53.172;8.256;2023-07-29T15:41:22;22.90;99.90
16064;DHT22;8136;53.172;8.256;2023-07-29T15:43:50;22.80;99.90
16064;DHT22;8136;53.172;8.256;2023-07-29T15:46:18;22.50;99.90
16064;DHT22;8136;53.172;8.256;2023-07-29T15:48:48;21.80;99.90
16064;DHT22;8136;53.172;8.256;2023-07-29T15:51:18;21.30;99.90
16064;DHT22;8136;53.172;8.256;2023-07-29T15:53:45;21.00;99.90
16064;DHT22;8136;53.172;8.256;2023-07-29T15:56:12;20.90;99.90
16064;DHT22;8136;53.172;8.256;2023-07-29T15:58:47;20.70;99.90
16064;DHT22;8136;53.172;8.256;2023-07-29T16:01:14;20.70;99.90
16064;DHT22;8136;53.172;8.256;2023-07-29T16:03:47;20.70;99.90
16064;DHT22;8136;53.172;8.256;2023-07-29T16:06:16;20.80;99.90